16:14
Airports
Links
Donate
Help keep this website running!
PayPal
Bitcoin
METAR
VOCB 241600Z 07006KT 6000 FEW015 27/14 Q1015 NOSIG
Current Weather Conditions at VOCB
MVFR 16:00:00 24-02-18
Altimeter:29.97 hg
Temp:27.0°c 81°f
Dew point:14.0°c 57°f
Wind:6 knots, 6.9 mph, 3 m/s, from 70°
Visibility:3.73 statute miles
1500(FEW) A few
No significant weather changes expected within 2 hours.
Past METAR reports
MVFR 15:30:00 24-02-18
Altimeter:29.94 hg
Temp:27.0°c 81°f
Dew point:15.0°c 59°f
Wind:5 knots, 5.8 mph, 3 m/s, from 50°
Visibility:3.73 statute miles
1500(FEW) A few
No significant weather changes expected within 2 hours.
VOCB 241530Z 05005KT 6000 FEW015 27/15 Q1014 NOSIG
MVFR 15:00:00 24-02-18
Altimeter:29.94 hg
Temp:28.0°c 82°f
Dew point:15.0°c 59°f
Wind:5 knots, 5.8 mph, 3 m/s, from 50°
Visibility:3.73 statute miles
1500(FEW) A few
No significant weather changes expected within 2 hours.
VOCB 241500Z 05005KT 6000 FEW015 28/15 Q1014 NOSIG
MVFR 14:30:00 24-02-18
Altimeter:29.94 hg
Temp:28.0°c 82°f
Dew point:15.0°c 59°f
Wind:5 knots, 5.8 mph, 3 m/s, from 50°
Visibility:3.73 statute miles
1500(FEW) A few
No significant weather changes expected within 2 hours.
VOCB 241430Z 05005KT 6000 FEW015 28/15 Q1014 NOSIG
MVFR 14:00:00 24-02-18
Altimeter:29.91 hg
Temp:29.0°c 84°f
Dew point:13.0°c 55°f
Wind:6 knots, 6.9 mph, 3 m/s, from 70°
Visibility:3.73 statute miles
1500(FEW) A few
No significant weather changes expected within 2 hours.
VOCB 241400Z 07006KT 6000 FEW015 29/13 Q1013 NOSIG
MVFR 13:30:00 24-02-18
Altimeter:29.91 hg
Temp:29.0°c 84°f
Dew point:13.0°c 55°f
Wind:6 knots, 6.9 mph, 3 m/s, from 50°
Visibility:3.73 statute miles
1500(FEW) A few
No significant weather changes expected within 2 hours.
VOCB 241330Z 05006KT 6000 FEW015 29/13 Q1013 NOSIG
MVFR 13:00:00 24-02-18
Altimeter:29.88 hg
Temp:30.0°c 86°f
Dew point:13.0°c 55°f
Wind:7 knots, 8.1 mph, 4 m/s, from 50°
Visibility:3.73 statute miles
1500(FEW) A few
No significant weather changes expected within 2 hours.
VOCB 241300Z 05007KT 6000 FEW015 30/13 Q1012 NOSIG
TAF
No TAF for VOCB
Forecast at VOCB
No Forecast Reports for VOCB